Time;durP1;ratioP1;P1;durP2;ratioP2;P2;SDS_P1;SDS_P2;PMS_P1;PMS_P2;Temp;Humidity;BMP_temperature;BMP_pressure;BME280_temperature;BME280_humidity;BME280_pressure;Samples;Min_cycle;Max_cycle;Signal;HPM_P1;HPM_P2
2020/12/01 00:01:13;;;;;;;13.50;7.55;;;;;;;19.05;50.35;100847.09;2317562;76;50676;-77
2020/12/01 00:04:15;;;;;;;12.95;8.05;;;;;;;19.03;50.22;100842.92;2317406;76;51518;-77
2020/12/01 00:07:18;;;;;;;14.75;7.90;;;;;;;19.02;50.30;100840.75;2317555;76;50381;-77
2020/12/01 00:10:20;;;;;;;11.38;7.55;;;;;;;19.01;50.39;100845.80;2316987;76;51529;-76
2020/12/01 00:13:22;;;;;;;14.90;7.58;;;;;;;18.98;50.13;100843.45;2317273;76;50397;-76
2020/12/01 00:16:25;;;;;;;11.35;7.47;;;;;;;18.98;50.26;100843.97;2316863;76;50614;-77
2020/12/01 00:19:27;;;;;;;14.38;7.78;;;;;;;18.96;50.06;100835.27;2317438;75;51501;-76
2020/12/01 00:22:29;;;;;;;12.13;7.50;;;;;;;18.96;50.24;100837.47;2316698;76;51474;-76
2020/12/01 00:25:31;;;;;;;10.50;7.08;;;;;;;18.93;50.33;100830.62;2317548;76;50422;-76
2020/12/01 00:28:34;;;;;;;12.50;7.60;;;;;;;18.93;50.19;100827.08;2317650;76;50375;-77
2020/12/01 00:31:40;;;;;;;13.18;7.25;;;;;;;18.91;50.37;100823.25;2316883;76;50857;-77
2020/12/01 00:34:43;;;;;;;13.98;7.55;;;;;;;18.90;50.40;100818.89;2316735;76;50786;-76
2020/12/01 00:37:45;;;;;;;12.23;7.12;;;;;;;18.88;50.44;100818.26;2317739;75;50440;-76
2020/12/01 00:40:49;;;;;;;10.72;6.97;;;;;;;18.88;50.24;100822.28;2317387;76;50659;-77
2020/12/01 00:43:51;;;;;;;11.00;6.80;;;;;;;18.86;50.09;100811.41;2316527;76;50442;-77
2020/12/01 00:46:53;;;;;;;10.48;6.95;;;;;;;18.85;50.36;100807.88;2310415;76;50690;-76
2020/12/01 00:49:55;;;;;;;14.58;7.58;;;;;;;18.83;50.01;100808.58;2306237;75;51591;-76
2020/12/01 00:52:57;;;;;;;12.33;6.95;;;;;;;18.84;50.35;100804.88;2306223;77;51585;-76
2020/12/01 00:56:00;;;;;;;10.70;6.85;;;;;;;18.82;50.10;100797.52;2306381;77;51457;-77
2020/12/01 00:59:02;;;;;;;9.73;6.20;;;;;;;18.83;50.17;100803.22;2306507;77;50367;-77
2020/12/01 01:02:04;;;;;;;11.85;6.87;;;;;;;18.81;49.93;100798.54;2306575;77;50678;-77
2020/12/01 01:05:06;;;;;;;12.03;6.62;;;;;;;18.80;49.88;100792.83;2306484;76;50737;-76
2020/12/01 01:08:09;;;;;;;12.75;6.75;;;;;;;18.79;50.16;100803.24;2306634;76;51557;-77
2020/12/01 01:11:11;;;;;;;12.43;6.60;;;;;;;18.79;50.04;100793.86;2306550;76;50421;-77
2020/12/01 01:14:13;;;;;;;10.70;6.58;;;;;;;18.78;50.00;100788.19;2316780;76;50766;-77
2020/12/01 01:17:15;;;;;;;10.95;6.47;;;;;;;18.76;49.93;100784.02;2318338;76;50347;-77
2020/12/01 01:20:17;;;;;;;8.65;6.12;;;;;;;18.75;49.99;100787.18;2317692;76;50703;-77
2020/12/01 01:23:20;;;;;;;10.60;6.67;;;;;;;18.76;50.04;100787.52;2317997;76;51488;-77
2020/12/01 01:26:22;;;;;;;7.30;5.78;;;;;;;18.75;50.18;100778.28;2317795;76;51510;-77
2020/12/01 01:29:28;;;;;;;8.85;6.20;;;;;;;18.73;49.94;100787.86;2318040;76;51510;-77
2020/12/01 01:32:28;;;;;;;12.28;6.58;;;;;;;18.72;50.03;100779.47;2316969;76;23000;-77
2020/12/01 01:35:30;;;;;;;11.78;6.40;;;;;;;18.70;49.63;100776.99;2317245;76;50503;-77
2020/12/01 01:38:32;;;;;;;11.28;6.60;;;;;;;18.69;49.91;100777.98;2317664;75;50701;-76
2020/12/01 01:41:35;;;;;;;9.23;6.10;;;;;;;18.69;49.63;100780.67;2317577;76;52340;-76
2020/12/01 01:44:38;;;;;;;10.23;5.92;;;;;;;18.69;49.78;100772.63;2317304;75;51450;-76
2020/12/01 01:47:40;;;;;;;9.38;6.10;;;;;;;18.69;50.03;100767.78;2317767;76;51623;-77
2020/12/01 01:50:45;;;;;;;12.80;7.15;;;;;;;18.67;50.00;100763.10;2309878;75;51586;-77
2020/12/01 01:53:49;;;;;;;8.10;6.33;;;;;;;18.68;49.54;100760.77;2306089;77;51627;-76
2020/12/01 01:56:53;;;;;;;10.48;6.85;;;;;;;18.68;49.80;100758.09;2306110;76;51542;-76
2020/12/01 01:59:55;;;;;;;8.93;6.20;;;;;;;18.66;49.89;100748.87;2305816;77;51537;-77
2020/12/01 02:02:58;;;;;;;10.18;6.45;;;;;;;18.66;49.94;100752.06;2306820;75;51555;-77
2020/12/01 02:06:00;;;;;;;9.33;6.15;;;;;;;18.64;49.77;100746.88;2317614;76;51533;-76
2020/12/01 02:09:05;;;;;;;8.75;5.80;;;;;;;18.63;49.71;100743.88;2317693;76;50429;-76
2020/12/01 02:12:08;;;;;;;8.45;5.92;;;;;;;18.63;49.84;100739.03;2317811;76;51586;-77
2020/12/01 02:15:10;;;;;;;8.55;6.17;;;;;;;18.61;49.90;100739.20;2317764;75;51451;-77
2020/12/01 02:18:12;;;;;;;9.48;6.17;;;;;;;18.60;49.58;100732.67;2317817;76;51537;-77
2020/12/01 02:21:24;;;;;;;9.40;6.05;;;;;;;18.61;49.93;100733.02;2317991;76;51446;-77
2020/12/01 02:24:31;;;;;;;7.22;5.28;;;;;;;18.58;49.66;100738.23;2317784;76;51492;-76
2020/12/01 02:27:33;;;;;;;14.93;6.20;;;;;;;18.56;49.53;100736.23;2318147;75;51507;-77
2020/12/01 02:30:35;;;;;;;8.00;5.53;;;;;;;18.58;49.41;100737.41;2318158;76;50349;-77
2020/12/01 02:33:37;;;;;;;9.43;6.70;;;;;;;18.57;49.87;100737.06;2318072;76;50245;-77
2020/12/01 02:36:39;;;;;;;8.10;5.78;;;;;;;18.56;49.46;100734.06;2318236;76;50601;-77
2020/12/01 02:39:42;;;;;;;9.20;6.25;;;;;;;18.56;49.86;100734.06;2318345;75;50370;-77
2020/12/01 02:42:44;;;;;;;8.75;5.87;;;;;;;18.55;49.76;100738.59;2318154;76;50752;-77
2020/12/01 02:45:46;;;;;;;7.33;5.35;;;;;;;18.52;49.86;100734.91;2318041;75;50414;-76
2020/12/01 02:48:48;;;;;;;9.03;5.75;;;;;;;18.52;49.68;100730.06;2318163;76;50816;-76
2020/12/01 02:51:50;;;;;;;6.92;5.20;;;;;;;18.49;49.37;100726.73;2317902;76;51605;-76
2020/12/01 02:54:53;;;;;;;8.10;5.47;;;;;;;18.49;49.56;100717.86;2317341;76;51523;-77
2020/12/01 02:57:55;;;;;;;7.90;5.65;;;;;;;18.49;49.55;100721.88;2317968;76;51464;-76
2020/12/01 03:00:57;;;;;;;7.00;4.92;;;;;;;18.48;49.73;100717.55;2317612;76;50737;-76
2020/12/01 03:03:59;;;;;;;7.03;5.60;;;;;;;18.47;49.48;100715.38;2316828;76;50447;-76
2020/12/01 03:07:01;;;;;;;7.37;5.17;;;;;;;18.46;49.65;100716.38;2317462;76;50307;-77
2020/12/01 03:10:06;;;;;;;7.67;5.55;;;;;;;18.46;49.71;100720.40;2317302;75;50716;-76
2020/12/01 03:13:08;;;;;;;7.45;5.83;;;;;;;18.45;49.57;100721.42;2317131;75;51609;-77
2020/12/01 03:16:10;;;;;;;9.48;5.50;;;;;;;18.45;49.81;100728.64;2317555;75;50652;-76
2020/12/01 03:19:12;;;;;;;7.12;5.25;;;;;;;18.43;49.47;100730.14;2317608;76;51427;-77
2020/12/01 03:22:14;;;;;;;8.60;5.28;;;;;;;18.44;49.73;100729.12;2317410;76;50728;-77
2020/12/01 03:25:17;;;;;;;9.70;5.42;;;;;;;18.42;49.83;100720.45;2317298;75;50418;-77
2020/12/01 03:28:19;;;;;;;7.53;5.87;;;;;;;18.43;49.70;100722.62;2317223;76;50276;-77
2020/12/01 03:31:21;;;;;;;7.30;5.30;;;;;;;18.42;49.80;100722.27;2316740;75;50708;-77
2020/12/01 03:34:23;;;;;;;8.83;5.33;;;;;;;18.39;49.54;100723.47;2317363;76;50364;-76
2020/12/01 03:37:25;;;;;;;8.43;5.22;;;;;;;18.41;49.67;100717.94;2317424;76;50394;-76
2020/12/01 03:40:28;;;;;;;9.70;5.62;;;;;;;18.40;49.44;100718.45;2317499;75;50795;-77
2020/12/01 03:43:30;;;;;;;7.35;5.37;;;;;;;18.40;49.65;100720.30;2317557;75;51568;-77
2020/12/01 03:46:32;;;;;;;8.53;5.40;;;;;;;18.40;49.68;100719.79;2317721;75;51552;-77
2020/12/01 03:49:34;;;;;;;9.80;6.05;;;;;;;18.39;49.74;100714.09;2317694;76;51516;-77
2020/12/01 03:52:37;;;;;;;8.05;5.22;;;;;;;18.38;49.49;100710.27;2317513;76;50365;-77
2020/12/01 03:55:39;;;;;;;7.83;5.62;;;;;;;18.38;49.64;100708.41;2317842;76;52401;-77
2020/12/01 03:58:41;;;;;;;7.05;5.37;;;;;;;18.36;49.71;100701.57;2317869;76;50747;-76
2020/12/01 04:01:44;;;;;;;7.47;5.15;;;;;;;18.35;49.77;100700.75;2317563;76;50361;-76
2020/12/01 04:04:46;;;;;;;6.75;5.22;;;;;;;18.33;49.92;100704.62;2318052;76;50370;-76
2020/12/01 04:07:48;;;;;;;7.75;5.42;;;;;;;18.32;49.96;100706.98;2317890;76;50734;-76
2020/12/01 04:10:50;;;;;;;10.13;5.47;;;;;;;18.31;49.98;100707.97;2317747;76;52469;-77
2020/12/01 04:13:53;;;;;;;9.58;5.25;;;;;;;18.28;50.02;100699.80;2317612;76;51609;-76
2020/12/01 04:16:55;;;;;;;6.85;5.08;;;;;;;18.28;49.98;100707.83;2317847;76;50430;-76
2020/12/01 04:19:57;;;;;;;7.22;5.28;;;;;;;18.28;49.91;100705.15;2317854;76;50725;-77
2020/12/01 04:22:59;;;;;;;7.25;5.35;;;;;;;18.26;49.90;100710.70;2317952;76;51564;-77
2020/12/01 04:26:02;;;;;;;10.78;5.87;;;;;;;18.25;49.96;100711.70;2318198;75;50664;-77
2020/12/01 04:29:04;;;;;;;10.48;5.42;;;;;;;18.25;49.96;100710.88;2318509;76;51493;-78
2020/12/01 04:32:06;;;;;;;8.45;5.80;;;;;;;18.25;49.99;100717.56;2308259;76;50421;-77
2020/12/01 04:35:08;;;;;;;7.85;5.62;;;;;;;18.23;49.95;100716.91;2306625;77;51586;-78
2020/12/01 04:38:11;;;;;;;7.80;5.03;;;;;;;18.23;49.94;100715.56;2306510;76;50826;-77
2020/12/01 04:41:13;;;;;;;10.80;5.42;;;;;;;18.23;49.88;100710.21;2306585;75;50203;-78
2020/12/01 04:44:30;;;;;;;7.83;5.47;;;;;;;18.22;49.98;100713.91;2306496;77;50303;-77
2020/12/01 04:47:39;;;;;;;9.05;5.20;;;;;;;18.21;50.02;100714.91;2307003;77;51593;-77
2020/12/01 04:50:44;;;;;;;9.93;5.40;;;;;;;18.19;50.03;100704.91;2295759;77;50456;-78
2020/12/01 04:54:04;;;;;;;10.95;5.87;;;;;;;18.19;50.01;100704.91;2306589;77;51530;-76
2020/12/01 04:57:21;;;;;;;9.53;5.50;;;;;;;18.18;50.00;100704.56;2306257;77;51624;-76
2020/12/01 05:00:43;;;;;;;8.93;5.45;;;;;;;18.16;50.15;100703.41;2309805;76;50342;-77
2020/12/01 05:03:54;;;;;;;9.08;5.53;;;;;;;18.17;49.70;100703.73;2317401;75;50637;-76
2020/12/01 05:07:29;;;;;;;7.92;5.62;;;;;;;18.21;49.97;100704.19;2318062;76;50370;-77
2020/12/01 05:10:23;;;;;;;8.93;4.85;;;;;;;18.17;49.56;100705.07;2317622;76;22293;-77
2020/12/01 05:13:29;;;;;;;10.98;5.62;;;;;;;18.17;49.75;100704.24;2318846;75;51632;-77
2020/12/01 05:16:49;;;;;;;9.13;5.62;;;;;;;18.17;49.59;100704.24;2318954;76;50290;-77
2020/12/01 05:19:52;;;;;;;8.78;5.60;;;;;;;18.17;49.44;100714.95;2318192;76;51548;-77
2020/12/01 05:22:58;;;;;;;8.70;5.83;;;;;;;18.16;49.42;100712.79;2317719;75;51623;-77
2020/12/01 05:26:03;;;;;;;8.85;5.87;;;;;;;18.16;49.59;100712.79;2306219;76;50409;-77
2020/12/01 05:29:07;;;;;;;10.82;6.12;;;;;;;18.16;49.42;100719.97;2319015;76;51471;-77
2020/12/01 05:32:09;;;;;;;10.05;5.90;;;;;;;18.14;49.49;100712.64;2316345;76;51475;-77
2020/12/01 05:35:14;;;;;;;6.72;5.30;;;;;;;18.17;49.64;100724.33;2317898;76;51521;-77
2020/12/01 05:38:18;;;;;;;9.25;5.62;;;;;;;18.18;49.41;100727.32;2319226;76;50706;-77
2020/12/01 05:41:24;;;;;;;8.13;6.08;;;;;;;18.19;49.36;100730.34;2319186;75;51530;-77
2020/12/01 05:44:30;;;;;;;9.70;6.28;;;;;;;18.19;49.39;100744.56;2316135;76;51550;-77
2020/12/01 05:47:38;;;;;;;7.62;5.70;;;;;;;18.25;49.67;100738.48;2319053;76;50373;-77
2020/12/01 05:50:49;;;;;;;8.25;5.70;;;;;;;18.29;49.42;100749.69;2318539;76;51057;-78
2020/12/01 05:53:58;;;;;;;13.58;5.78;;;;;;;18.30;49.81;100751.34;2317720;75;50751;-78
2020/12/01 05:57:00;;;;;;;8.38;5.65;;;;;;;18.39;50.08;100756.95;2300510;76;50437;-79
2020/12/01 06:00:06;;;;;;;9.40;4.92;;;;;;;18.48;49.94;100750.53;2300260;76;50752;-79
2020/12/01 06:03:23;;;;;;;5.85;4.58;;;;;;;18.57;49.61;100761.17;2317805;76;51572;-79
2020/12/01 06:06:27;;;;;;;5.15;3.98;;;;;;;18.61;49.65;100755.80;2314483;76;50321;-78
2020/12/01 06:09:56;;;;;;;6.15;4.67;;;;;;;18.68;49.49;100758.91;2316958;76;50752;-78
2020/12/01 06:13:08;;;;;;;7.28;4.53;;;;;;;18.71;49.52;100772.45;2299103;76;51577;-78
2020/12/01 06:16:31;;;;;;;11.43;5.03;;;;;;;18.84;49.21;100763.32;2317842;76;50483;-79
2020/12/01 06:19:39;;;;;;;13.98;4.90;;;;;;;18.87;49.16;100764.29;2282911;76;50456;-79
2020/12/01 06:23:09;;;;;;;6.50;4.55;;;;;;;18.88;49.22;100768.66;2277546;78;51541;-79
2020/12/01 06:26:34;;;;;;;7.33;4.78;;;;;;;18.89;49.33;100773.51;2315911;76;51551;-80
2020/12/01 06:29:48;;;;;;;8.30;5.15;;;;;;;18.90;49.36;100771.96;2318224;76;50413;-77
2020/12/01 06:33:11;;;;;;;7.47;4.33;;;;;;;18.96;49.39;100762.87;2318558;76;22297;-79
2020/12/01 06:36:17;;;;;;;9.03;4.50;;;;;;;19.08;49.63;100763.58;2317715;76;51956;-78
2020/12/01 06:39:22;;;;;;;15.10;5.67;;;;;;;19.12;49.94;100766.74;2307389;76;51508;-78
2020/12/01 06:42:33;;;;;;;6.83;4.37;;;;;;;19.16;49.98;100768.02;2286281;76;50750;-77
2020/12/01 06:45:44;;;;;;;11.70;4.05;;;;;;;19.19;50.01;100770.84;2303895;76;50433;-78
2020/12/01 06:48:46;;;;;;;11.68;4.62;;;;;;;19.22;49.98;100773.19;2304968;76;51525;-78
2020/12/01 06:51:49;;;;;;;7.72;4.33;;;;;;;19.22;50.06;100771.33;2284983;76;51624;-78
2020/12/01 06:54:53;;;;;;;12.65;4.90;;;;;;;19.28;49.96;100778.63;2304370;75;50317;-78
2020/12/01 06:57:55;;;;;;;9.40;4.33;;;;;;;19.28;50.05;100778.63;2290368;76;50652;-77
2020/12/01 07:01:15;;;;;;;7.75;4.62;;;;;;;19.31;50.02;100787.64;2295440;76;51591;-78
2020/12/01 07:04:22;;;;;;;7.67;3.90;;;;;;;19.33;50.09;100787.47;2278648;76;50442;-78
2020/12/01 07:07:29;;;;;;;10.28;4.90;;;;;;;19.39;50.01;100791.27;2285616;76;50167;-77
2020/12/01 07:10:32;;;;;;;9.73;4.45;;;;;;;19.43;50.05;100788.03;2284301;76;50421;-77
2020/12/01 07:13:52;;;;;;;15.30;4.87;;;;;;;19.44;50.10;100795.56;2314748;75;50808;-77
2020/12/01 07:16:55;;;;;;;11.25;4.78;;;;;;;19.48;49.98;100798.22;2317706;75;51579;-77
2020/12/01 07:20:21;;;;;;;12.40;4.90;;;;;;;19.48;50.03;100793.67;2318137;76;50789;-76
2020/12/01 07:23:45;;;;;;;14.33;4.15;;;;;;;19.52;49.97;100800.34;2317431;75;51581;-77
2020/12/01 07:27:05;;;;;;;11.33;4.53;;;;;;;19.56;49.89;100810.20;2318107;76;50380;-77
2020/12/01 07:30:22;;;;;;;10.78;4.35;;;;;;;19.59;49.81;100809.81;2317915;76;50727;-77
2020/12/01 07:33:29;;;;;;;12.15;4.35;;;;;;;19.59;49.77;100804.45;2318415;76;51517;-78
2020/12/01 07:36:38;;;;;;;11.70;4.80;;;;;;;19.64;49.68;100807.92;2318337;76;50294;-78
2020/12/01 07:39:43;;;;;;;9.33;4.25;;;;;;;19.65;49.58;100809.58;2317767;75;50335;-78
2020/12/01 07:42:45;;;;;;;9.20;4.55;;;;;;;19.68;49.45;100810.09;2317463;76;50226;-77
2020/12/01 07:45:48;;;;;;;13.55;4.47;;;;;;;19.72;49.35;100814.56;2318178;75;50190;-78
2020/12/01 07:49:03;;;;;;;8.18;4.35;;;;;;;19.74;49.25;100824.61;2299680;76;51548;-79
2020/12/01 07:52:32;;;;;;;10.78;4.40;;;;;;;19.76;49.18;100828.77;2311230;76;50415;-78
2020/12/01 07:55:59;;;;;;;7.22;3.72;;;;;;;19.93;48.87;100836.62;2302062;75;51505;-78
2020/12/01 07:59:09;;;;;;;10.32;3.77;;;;;;;20.13;48.29;100845.75;2317339;75;51508;-78
2020/12/01 08:02:12;;;;;;;8.43;4.35;;;;;;;20.14;48.14;100847.44;2292182;76;51259;-78
2020/12/01 08:05:14;;;;;;;9.80;3.87;;;;;;;20.14;48.09;100849.27;2315760;76;50262;-77
2020/12/01 08:08:18;;;;;;;9.53;3.72;;;;;;;20.23;47.87;100854.34;2291828;76;50698;-78
2020/12/01 08:11:21;;;;;;;8.10;3.25;;;;;;;20.30;47.64;100854.44;2303850;76;50807;-76
2020/12/01 08:14:23;;;;;;;7.10;4.22;;;;;;;20.32;47.60;100854.23;2312130;76;50412;-78
2020/12/01 08:17:30;;;;;;;8.00;3.87;;;;;;;20.38;47.41;100848.11;2280246;78;50719;-78
2020/12/01 08:20:32;;;;;;;10.40;4.17;;;;;;;20.41;47.25;100842.35;2288390;76;51624;-76
2020/12/01 08:23:35;;;;;;;9.25;3.92;;;;;;;20.36;47.36;100840.23;2318699;76;51457;-77
2020/12/01 08:26:37;;;;;;;7.87;3.22;;;;;;;20.36;47.41;100840.75;2309375;76;50772;-78
2020/12/01 08:29:39;;;;;;;9.40;4.12;;;;;;;20.39;47.29;100845.73;2315967;76;50363;-77
2020/12/01 08:32:42;;;;;;;8.18;3.98;;;;;;;20.43;47.17;100845.69;2295969;76;50714;-77
2020/12/01 08:35:47;;;;;;;6.97;3.60;;;;;;;20.40;47.20;100844.73;2286997;76;50485;-77
2020/12/01 08:39:01;;;;;;;9.50;4.13;;;;;;;20.46;47.08;100850.68;2296899;76;51539;-77
2020/12/01 08:42:19;;;;;;;7.62;3.35;;;;;;;20.45;47.05;100851.72;2314861;76;50632;-77
2020/12/01 08:45:39;;;;;;;7.12;3.67;;;;;;;20.43;47.10;100863.16;2318400;76;51707;-78
2020/12/01 08:48:48;;;;;;;9.95;4.05;;;;;;;20.52;46.92;100864.69;2279805;76;50491;-77
2020/12/01 08:51:55;;;;;;;5.85;3.50;;;;;;;20.51;46.89;100868.41;2279207;76;50288;-78
2020/12/01 08:55:00;;;;;;;9.65;3.95;;;;;;;20.53;46.86;100874.95;2279411;76;52543;-78
2020/12/01 08:58:17;;;;;;;5.30;3.47;;;;;;;20.53;46.85;100875.78;2296819;76;50799;-78
2020/12/01 09:01:19;;;;;;;6.90;3.65;;;;;;;20.59;46.75;100876.91;2308795;76;51498;-79
2020/12/01 09:04:27;;;;;;;6.10;4.00;;;;;;;20.56;46.81;100875.42;2306088;76;50393;-78
2020/12/01 09:07:35;;;;;;;4.37;3.22;;;;;;;20.55;46.84;100871.58;2299498;76;50383;-79
2020/12/01 09:10:34;;;;;;;9.75;3.87;;;;;;;20.56;46.80;100879.46;2308210;76;22263;-77
2020/12/01 09:13:40;;;;;;;7.28;3.60;;;;;;;20.61;46.70;100883.75;2305381;76;50547;-78
2020/12/01 09:20:09;;;;;;;5.92;3.83;;;;;;;20.62;46.68;100889.44;2286844;76;22530;-78
2020/12/01 09:23:08;;;;;;;7.87;3.90;;;;;;;20.64;46.65;100894.13;2295606;76;23017;-78
2020/12/01 09:26:24;;;;;;;6.05;3.70;;;;;;;20.65;46.62;100890.42;2301108;76;51481;-78
2020/12/01 09:29:26;;;;;;;5.62;4.10;;;;;;;20.65;46.64;100893.11;2318080;75;50803;-78
2020/12/01 09:32:29;;;;;;;7.28;4.58;;;;;;;20.68;46.61;100897.28;2291759;76;50407;-77
2020/12/01 09:35:31;;;;;;;11.93;8.48;;;;;;;20.66;46.62;100894.77;2312899;76;51502;-78
2020/12/01 09:38:33;;;;;;;19.25;13.72;;;;;;;20.73;46.54;100895.34;2285267;76;50439;-78
2020/12/01 09:41:36;;;;;;;21.35;16.17;;;;;;;20.72;46.52;100895.03;2280576;76;50702;-78
2020/12/01 09:48:04;;;;;;;33.80;24.70;;;;;;;20.73;46.61;100909.64;2316140;76;23055;-78
2020/12/01 09:51:03;;;;;;;33.98;25.02;;;;;;;20.73;46.58;100915.50;2286838;76;22465;-78
2020/12/01 09:54:33;;;;;;;36.42;26.20;;;;;;;20.85;46.30;100917.50;2302326;75;50258;-78
2020/12/01 09:57:42;;;;;;;37.60;28.07;;;;;;;20.80;46.39;100911.03;2291031;75;22311;-78
2020/12/01 10:04:48;;;;;;;42.17;30.23;;;;;;;20.78;46.41;100922.48;2261632;76;23055;-78
2020/12/01 10:10:34;;;;;;;40.85;30.72;;;;;;;20.76;46.49;100920.53;2293454;76;22544;-77
2020/12/01 10:13:44;;;;;;;39.98;29.95;;;;;;;20.81;46.36;100916.75;2294409;76;22718;-77
2020/12/01 10:17:29;;;;;;;42.10;31.55;;;;;;;20.86;46.31;100924.56;2297582;76;23194;-77
2020/12/01 10:31:33;;;;;;;42.53;30.00;;;;;;;20.86;46.36;100930.46;2287484;76;22980;-77
2020/12/01 10:36:38;;;;;;;35.80;28.27;;;;;;;20.91;46.14;100938.79;2303194;76;22599;-78
2020/12/01 10:39:40;;;;;;;36.28;28.67;;;;;;;20.92;46.15;100939.09;2295393;76;51485;-75
2020/12/01 10:42:43;;;;;;;38.95;29.50;;;;;;;20.97;46.09;100943.91;2290363;76;50789;-76
2020/12/01 10:45:45;;;;;;;41.83;30.50;;;;;;;20.90;46.26;100947.03;2300969;76;51604;-76
2020/12/01 10:48:47;;;;;;;37.45;27.40;;;;;;;20.90;46.22;100951.90;2317371;75;50394;-76
2020/12/01 10:51:49;;;;;;;40.00;29.45;;;;;;;20.88;46.26;100948.08;2295465;76;50730;-76
2020/12/01 10:54:52;;;;;;;34.55;27.75;;;;;;;20.94;46.16;100949.16;2293910;76;50402;-79
2020/12/01 10:57:54;;;;;;;36.95;27.20;;;;;;;20.94;46.14;100950.51;2287608;76;51668;-79
2020/12/01 11:00:56;;;;;;;34.78;26.40;;;;;;;20.96;46.12;100955.19;2293670;76;50727;-78
2020/12/01 11:03:58;;;;;;;34.05;26.07;;;;;;;21.01;46.02;100953.24;2285937;76;50527;-77
2020/12/01 11:07:00;;;;;;;33.25;25.27;;;;;;;21.02;45.99;100951.72;2302238;76;51573;-77
2020/12/01 11:10:03;;;;;;;32.48;24.50;;;;;;;21.05;45.89;100960.75;2316030;76;50375;-76
2020/12/01 11:13:08;;;;;;;35.30;25.60;;;;;;;21.08;45.82;100965.73;2297763;76;51490;-76
2020/12/01 11:16:10;;;;;;;34.98;25.68;;;;;;;21.05;45.86;100960.75;2279531;77;22359;-76
2020/12/01 11:19:12;;;;;;;30.88;23.70;;;;;;;21.15;45.58;100963.64;2261438;78;51540;-80
2020/12/01 11:22:15;;;;;;;33.02;24.70;;;;;;;21.04;45.82;100960.44;2311892;75;50697;-81
2020/12/01 11:25:20;;;;;;;31.30;24.47;;;;;;;20.88;46.17;100963.36;2318414;76;50474;-78
2020/12/01 11:28:22;;;;;;;33.05;24.63;;;;;;;20.95;45.92;100962.09;2318697;76;52380;-77
2020/12/01 11:31:25;;;;;;;33.18;24.10;;;;;;;20.88;46.17;100962.01;2315577;76;50767;-79
2020/12/01 11:34:27;;;;;;;31.48;23.02;;;;;;;20.87;46.19;100973.80;2318464;76;51577;-78
2020/12/01 11:37:29;;;;;;;32.88;24.12;;;;;;;20.94;45.99;100967.99;2318463;76;51498;-78
2020/12/01 11:40:31;;;;;;;29.40;22.48;;;;;;;20.94;45.99;100967.16;2318022;76;50395;-77
2020/12/01 11:43:33;;;;;;;28.60;21.25;;;;;;;20.96;45.95;100968.64;2317936;76;50707;-77
2020/12/01 11:46:36;;;;;;;29.77;22.40;;;;;;;20.96;45.96;100974.51;2318249;76;51554;-76
2020/12/01 11:49:38;;;;;;;27.55;21.40;;;;;;;20.88;46.20;100979.49;2279571;78;51501;-77
2020/12/01 11:52:40;;;;;;;27.22;20.77;;;;;;;21.01;45.93;100977.45;2293027;76;51506;-76
2020/12/01 11:55:42;;;;;;;29.02;21.97;;;;;;;20.95;46.01;100976.37;2317850;76;50402;-76
2020/12/01 11:58:44;;;;;;;27.32;20.05;;;;;;;20.91;46.13;100975.10;2317694;76;50722;-76
2020/12/01 12:01:48;;;;;;;24.47;18.77;;;;;;;20.93;46.12;100976.23;2317819;76;51512;-76
2020/12/01 12:04:50;;;;;;;25.48;19.48;;;;;;;20.96;46.06;100976.70;2317755;75;50410;-77
2020/12/01 12:07:54;;;;;;;24.55;19.12;;;;;;;20.90;46.18;100976.63;2317777;76;50739;-76
2020/12/01 12:10:56;;;;;;;25.95;18.92;;;;;;;20.96;46.11;100971.33;2317774;76;51540;-77
2020/12/01 12:13:59;;;;;;;23.80;17.98;;;;;;;20.98;46.05;100980.02;2317555;76;50398;-76
2020/12/01 12:17:02;;;;;;;21.33;17.48;;;;;;;20.98;46.08;100977.33;2317541;76;51596;-77
2020/12/01 12:20:04;;;;;;;21.55;16.80;;;;;;;20.98;46.07;100977.33;2317879;76;51479;-76
2020/12/01 12:23:06;;;;;;;23.73;17.17;;;;;;;21.00;46.07;100980.67;2317683;76;50723;-76
2020/12/01 12:26:08;;;;;;;22.30;17.17;;;;;;;20.97;46.11;100978.36;2317933;76;51547;-77
2020/12/01 12:29:11;;;;;;;23.12;16.32;;;;;;;20.96;46.16;100980.74;2317773;76;51427;-79
2020/12/01 12:32:13;;;;;;;22.10;17.02;;;;;;;20.94;46.25;100980.09;2317539;75;51669;-76
2020/12/01 12:35:15;;;;;;;21.02;15.25;;;;;;;20.91;46.23;100980.48;2317837;76;50359;-77
2020/12/01 12:38:19;;;;;;;19.52;15.75;;;;;;;20.88;46.28;100989.77;2316664;75;50329;-76
2020/12/01 12:41:21;;;;;;;19.55;15.45;;;;;;;20.86;46.24;100996.36;2316452;76;52298;-78
2020/12/01 12:44:23;;;;;;;19.17;14.90;;;;;;;20.79;46.38;100996.78;2303836;76;50310;-78
2020/12/01 12:47:26;;;;;;;17.73;13.80;;;;;;;20.82;46.29;101001.78;2317878;76;50916;-77
2020/12/01 12:50:28;;;;;;;19.92;15.00;;;;;;;20.90;46.21;101008.91;2317815;76;51515;-77
2020/12/01 12:53:30;;;;;;;18.12;14.25;;;;;;;20.92;46.12;101018.97;2317783;76;51525;-77
2020/12/01 12:56:32;;;;;;;17.12;14.30;;;;;;;20.92;46.11;101017.11;2317728;76;51453;-79
2020/12/01 12:59:34;;;;;;;18.98;14.50;;;;;;;20.88;46.17;101026.56;2315304;76;50905;-77
2020/12/01 13:02:37;;;;;;;26.68;13.93;;;;;;;20.93;46.07;101030.86;2305757;77;50735;-74
2020/12/01 13:05:39;;;;;;;30.97;13.62;;;;;;;20.88;46.20;101029.25;2310665;76;51424;-74
2020/12/01 13:08:41;;;;;;;19.05;13.13;;;;;;;20.92;46.13;101034.59;2289429;76;51478;-73
2020/12/01 13:11:44;;;;;;;23.73;13.62;;;;;;;20.93;46.17;101029.52;2302563;76;50364;-73
2020/12/01 13:14:47;;;;;;;18.57;12.30;;;;;;;20.96;46.14;101030.52;2317055;76;51611;-73
2020/12/01 13:17:49;;;;;;;21.90;12.82;;;;;;;20.82;46.39;101023.30;2309375;76;51588;-74
2020/12/01 13:20:51;;;;;;;17.17;12.05;;;;;;;20.81;46.42;101019.78;2304027;76;51562;-73
2020/12/01 13:23:54;;;;;;;17.70;11.50;;;;;;;20.81;46.42;101026.50;2293221;76;50387;-73
2020/12/01 13:26:56;;;;;;;19.55;12.18;;;;;;;20.86;46.36;101032.67;2287006;76;50714;-73
2020/12/01 13:29:58;;;;;;;16.57;11.48;;;;;;;20.88;46.25;101035.49;2317650;75;51527;-72
2020/12/01 13:33:00;;;;;;;17.90;11.55;;;;;;;20.78;46.42;101030.06;2317603;76;51586;-72
2020/12/01 13:36:02;;;;;;;20.15;11.88;;;;;;;20.76;46.42;101037.52;2318084;76;50409;-72
2020/12/01 13:39:04;;;;;;;18.50;10.88;;;;;;;20.73;46.42;101043.23;2317774;76;50424;-72
2020/12/01 13:42:07;;;;;;;17.20;11.95;;;;;;;20.74;46.41;101046.27;2317782;76;50693;-73
2020/12/01 13:45:09;;;;;;;13.75;10.40;;;;;;;20.76;46.33;101046.92;2317878;76;51540;-72
2020/12/01 13:48:12;;;;;;;15.90;10.43;;;;;;;20.78;46.27;101051.09;2317814;76;51078;-72
2020/12/01 13:51:14;;;;;;;15.58;10.18;;;;;;;20.86;46.12;101051.50;2317485;76;50434;-71
2020/12/01 13:54:16;;;;;;;16.30;9.90;;;;;;;20.86;46.11;101056.88;2316714;76;50057;-72
2020/12/01 13:57:18;;;;;;;12.65;9.78;;;;;;;20.86;46.10;101067.12;2316594;76;50689;-72
2020/12/01 14:00:23;;;;;;;13.38;10.13;;;;;;;20.82;46.16;101066.33;2315021;76;51538;-72
2020/12/01 14:03:25;;;;;;;15.80;9.95;;;;;;;20.86;46.07;101064.95;2280962;76;51926;-72
2020/12/01 14:06:28;;;;;;;12.70;9.80;;;;;;;20.81;46.18;101067.36;2294315;76;51708;-72
2020/12/01 14:09:30;;;;;;;13.55;9.70;;;;;;;20.92;45.97;101069.56;2311910;76;51475;-74
2020/12/01 14:12:33;;;;;;;12.58;9.03;;;;;;;20.86;46.08;101079.73;2279649;76;50158;-73
2020/12/01 14:15:35;;;;;;;12.68;9.43;;;;;;;20.95;45.95;101088.53;2279425;76;50777;-72
2020/12/01 14:18:37;;;;;;;12.05;9.08;;;;;;;20.91;45.96;101086.73;2309039;76;50834;-73
2020/12/01 14:21:39;;;;;;;12.93;8.98;;;;;;;20.85;46.13;101088.30;2313553;76;51550;-71
2020/12/01 14:24:42;;;;;;;12.18;8.50;;;;;;;20.78;46.18;101086.05;2278996;78;50487;-72
2020/12/01 14:27:44;;;;;;;12.05;8.78;;;;;;;20.77;46.13;101095.13;2295372;76;50321;-72
2020/12/01 14:30:46;;;;;;;11.68;8.38;;;;;;;20.72;46.26;101103.44;2317439;75;50731;-72
2020/12/01 14:33:48;;;;;;;11.97;9.18;;;;;;;20.71;46.23;101107.98;2288203;76;51621;-72
2020/12/01 14:36:50;;;;;;;10.32;8.33;;;;;;;20.74;46.20;101114.84;2297961;76;50774;-72
2020/12/01 14:39:53;;;;;;;12.68;8.08;;;;;;;20.73;46.22;101114.50;2317454;76;52518;-72